Weather at Aswan International Airport

Public forecast

Using degrees Celsius for public forecast. Weather courtesy of forecast.io.

Current aviation weather report (METAR) for Aswan International Airport

2024/05/30 21:00 (retrieved 46 minutes ago)

HESN 302100Z 36006KT CAVOK 30/05 Q1012 NOSIG

Aviation forecast (TAF) for Aswan International Airport

2024/05/30 18:03 (retrieved 4 hours ago)

TAF HESN 301700Z 3018/3124 35010KT CAVOK